Kings Mountain, North Carolina
Current Conditions -  °F | °C
As of 8:54 PM on Monday 20 Oct 2014 (Local Time) from KAKH Reporting Station
Clear Clear  
Wind Chill: 56°   Ceiling: Unl
Heat Index: 56°   Visibility: 10mi
Dew Point: 50°   Wind: 0mph
Humidity: 80%   Direction: NA
Pressure: 30"   Gusts: NA
Location:  35.24°N, 81.34°W
Report Text: KAKH 210054Z AUTO 00000KT 10SM CLR 13/10 A3000 RMK AO2 SLP159 T01330100
Loading
Personal Weather Stations






























Interactive Weather Map
Tropical Storm Tracking
New forecast layout! Learn more

10-Day Weather Forecast

Advertisements
Track Severe Weather on mobile